createdAt,value
2018-09-23T00:01:04.751Z,10.20
2018-09-23T00:06:00.263Z,10.10
2018-09-23T00:08:28.256Z,10.20
2018-09-23T00:13:23.794Z,10.20
2018-09-23T00:15:51.897Z,10.10
2018-09-23T00:18:19.989Z,10.10
2018-09-23T00:20:47.912Z,10.10
2018-09-23T00:23:15.866Z,10.10
2018-09-23T00:25:43.838Z,10.20
2018-09-23T00:28:11.783Z,10.10
2018-09-23T00:30:39.747Z,10.10
2018-09-23T00:33:07.711Z,10.20
2018-09-23T00:35:35.759Z,10.20
2018-09-23T00:40:31.318Z,10.10
2018-09-23T00:42:59.345Z,10.10
2018-09-23T00:45:27.384Z,10.20
2018-09-23T00:47:55.355Z,10.20
2018-09-23T00:52:51.222Z,10.20
2018-09-23T00:55:19.197Z,10.20
2018-09-23T00:57:47.132Z,10.20
2018-09-23T01:00:15.156Z,10.10
2018-09-23T01:02:43.066Z,10.20
2018-09-23T01:05:11.038Z,10.00
2018-09-23T01:07:39.022Z,10.20
2018-09-23T01:10:07.009Z,10.20
2018-09-23T01:12:35.003Z,10.10
2018-09-23T01:15:02.956Z,10.10
2018-09-23T01:17:30.911Z,10.10
2018-09-23T01:19:59.157Z,10.10
2018-09-23T01:22:27.100Z,10.10
2018-09-23T01:29:50.278Z,10.20
2018-09-23T01:39:42.721Z,10.20
2018-09-23T01:42:10.632Z,10.20
2018-09-23T01:47:06.217Z,10.20
2018-09-23T01:49:34.181Z,10.20
2018-09-23T01:54:29.769Z,10.20
2018-09-23T01:56:57.725Z,10.20
2018-09-23T01:59:26.472Z,10.20
2018-09-23T02:04:21.995Z,10.20
2018-09-23T02:06:49.928Z,10.20
2018-09-23T02:09:17.881Z,10.20
2018-09-23T02:11:45.793Z,10.20
2018-09-23T02:16:41.261Z,10.20
2018-09-23T02:19:09.181Z,10.30
2018-09-23T02:21:37.143Z,10.20
2018-09-23T02:24:05.073Z,10.20
2018-09-23T02:26:33.004Z,10.20
2018-09-23T02:29:00.960Z,10.20
2018-09-23T02:33:56.494Z,10.20
2018-09-23T02:36:24.449Z,10.20
2018-09-23T02:38:52.381Z,10.20
2018-09-23T02:41:20.318Z,10.20
2018-09-23T02:43:48.211Z,10.20
2018-09-23T02:46:16.170Z,10.20
2018-09-23T02:48:44.094Z,10.20
2018-09-23T02:51:12.025Z,10.20
2018-09-23T02:53:39.970Z,10.20
2018-09-23T02:56:07.877Z,10.20
2018-09-23T03:03:31.722Z,10.20
2018-09-23T03:05:59.742Z,10.20
2018-09-23T03:08:27.666Z,10.20
2018-09-23T03:10:57.447Z,10.20
2018-09-23T03:15:53.063Z,10.20
2018-09-23T03:18:21.013Z,10.20
2018-09-23T03:23:16.470Z,10.20
2018-09-23T03:25:44.386Z,10.20
2018-09-23T03:28:12.340Z,10.20
2018-09-23T03:33:07.948Z,10.20
2018-09-23T03:35:35.865Z,10.20
2018-09-23T03:38:03.856Z,10.20
2018-09-23T03:40:31.797Z,10.30
2018-09-23T03:42:59.818Z,10.30
2018-09-23T03:47:56.325Z,10.30
2018-09-23T03:50:24.410Z,10.30
2018-09-23T03:52:52.330Z,10.30
2018-09-23T03:55:20.298Z,10.30
2018-09-23T03:57:48.239Z,10.30
2018-09-23T04:00:16.188Z,10.30
2018-09-23T04:02:44.374Z,10.30
2018-09-23T04:05:12.330Z,10.30
2018-09-23T04:07:40.260Z,10.30
2018-09-23T04:15:03.571Z,10.30
2018-09-23T04:17:31.544Z,10.30
2018-09-23T04:19:59.498Z,10.30
2018-09-23T04:22:27.434Z,10.20
2018-09-23T04:24:55.362Z,10.30
2018-09-23T04:27:23.326Z,10.30
2018-09-23T04:29:51.342Z,10.30
2018-09-23T04:32:19.242Z,10.30
2018-09-23T04:34:47.199Z,10.30
2018-09-23T04:37:15.105Z,10.30
2018-09-23T04:39:43.053Z,10.30
2018-09-23T04:42:10.969Z,10.30
2018-09-23T04:44:38.958Z,10.20
2018-09-23T04:47:06.885Z,10.30
2018-09-23T04:49:35.179Z,10.30
2018-09-23T04:52:03.104Z,10.30
2018-09-23T04:54:31.058Z,10.30
2018-09-23T04:56:59.342Z,10.30
2018-09-23T04:59:27.282Z,10.30
2018-09-23T05:01:55.233Z,10.30
2018-09-23T05:06:50.791Z,10.30
2018-09-23T05:14:13.816Z,10.30
2018-09-23T05:16:42.065Z,10.30
2018-09-23T05:19:10.011Z,10.30
2018-09-23T05:21:37.969Z,10.30
2018-09-23T05:24:05.969Z,10.30
2018-09-23T05:26:33.945Z,10.30
2018-09-23T05:29:01.874Z,10.30
2018-09-23T05:33:57.386Z,10.30
2018-09-23T05:36:25.286Z,10.30
2018-09-23T05:38:53.200Z,10.40
2018-09-23T05:41:21.181Z,10.40
2018-09-23T05:43:49.290Z,10.40
2018-09-23T05:46:17.194Z,10.40
2018-09-23T05:51:12.689Z,10.50
2018-09-23T05:53:40.599Z,10.50
2018-09-23T05:58:36.098Z,10.60
2018-09-23T06:01:04.155Z,10.60
2018-09-23T06:05:59.617Z,10.60
2018-09-23T06:08:27.835Z,10.70
2018-09-23T06:10:55.768Z,10.80
2018-09-23T06:13:23.719Z,10.80
2018-09-23T06:15:51.676Z,10.80
2018-09-23T06:18:19.592Z,10.80
2018-09-23T06:20:47.530Z,10.80
2018-09-23T06:23:15.694Z,10.80
2018-09-23T06:28:11.152Z,10.90
2018-09-23T06:33:06.924Z,11.00
2018-09-23T06:35:34.849Z,11.00
2018-09-23T06:40:30.341Z,11.00
2018-09-23T06:42:58.262Z,11.00
2018-09-23T06:45:26.231Z,11.10
2018-09-23T06:47:54.229Z,11.00
2018-09-23T06:50:22.173Z,11.10
2018-09-23T06:52:50.145Z,11.20
2018-09-23T06:55:18.196Z,11.20
2018-09-23T06:57:46.175Z,11.30
2018-09-23T07:02:41.696Z,11.40
2018-09-23T07:05:09.656Z,11.50
2018-09-23T07:07:37.699Z,11.40
2018-09-23T07:12:33.321Z,11.50
2018-09-23T07:15:01.283Z,11.60
2018-09-23T07:17:29.270Z,11.60
2018-09-23T07:22:24.773Z,11.50
2018-09-23T07:24:52.734Z,11.50
2018-09-23T07:27:20.709Z,11.60
2018-09-23T07:29:48.673Z,11.60
2018-09-23T07:32:16.957Z,11.60
2018-09-23T07:34:44.943Z,11.60
2018-09-23T07:37:12.914Z,11.70
2018-09-23T07:39:41.047Z,11.70
2018-09-23T07:42:08.956Z,11.80
2018-09-23T07:44:36.873Z,11.80
2018-09-23T07:47:04.830Z,11.90
2018-09-23T07:49:32.752Z,11.90
2018-09-23T07:52:00.706Z,11.90
2018-09-23T07:54:28.760Z,12.00
2018-09-23T07:56:56.789Z,12.10
2018-09-23T07:59:24.677Z,12.10
2018-09-23T08:01:52.568Z,12.00
2018-09-23T08:04:20.497Z,12.00
2018-09-23T08:06:48.489Z,12.00
2018-09-23T08:09:16.458Z,12.00
2018-09-23T08:11:44.376Z,12.10
2018-09-23T08:16:39.881Z,12.10
2018-09-23T08:19:08.243Z,12.10
2018-09-23T08:24:03.828Z,12.10
2018-09-23T08:26:31.826Z,12.10
2018-09-23T08:28:59.712Z,12.00
2018-09-23T08:31:27.913Z,12.10
2018-09-23T08:33:55.856Z,12.10
2018-09-23T08:36:23.795Z,12.10
2018-09-23T08:38:51.715Z,12.10
2018-09-23T08:41:19.630Z,12.10
2018-09-23T08:43:47.603Z,12.10
2018-09-23T08:48:43.115Z,12.20
2018-09-23T08:51:10.996Z,12.20
2018-09-23T08:56:06.545Z,12.20
2018-09-23T08:58:34.519Z,12.30
2018-09-23T09:03:30.370Z,12.20
2018-09-23T09:05:58.580Z,12.30
2018-09-23T09:08:26.517Z,12.20
2018-09-23T09:13:22.076Z,12.30
2018-09-23T09:18:17.532Z,12.20
2018-09-23T09:23:13.466Z,12.10
2018-09-23T09:25:41.360Z,12.20
2018-09-23T09:28:09.283Z,12.10
2018-09-23T09:33:04.822Z,12.10
2018-09-23T09:40:27.939Z,12.30
2018-09-23T09:42:55.876Z,12.20
2018-09-23T09:45:23.824Z,12.30
2018-09-23T09:52:46.968Z,12.10
2018-09-23T09:55:14.953Z,12.10
2018-09-23T09:57:42.882Z,12.00
2018-09-23T10:02:38.371Z,12.00
2018-09-23T10:05:06.653Z,12.00
2018-09-23T10:07:34.554Z,12.10
2018-09-23T10:12:30.197Z,12.10
2018-09-23T10:14:58.270Z,12.20
2018-09-23T10:17:26.252Z,12.20
2018-09-23T10:19:54.184Z,12.10
2018-09-23T10:22:22.136Z,12.00
2018-09-23T10:24:50.065Z,12.00
2018-09-23T10:27:18.010Z,11.90
2018-09-23T10:29:46.045Z,11.80
2018-09-23T10:32:13.970Z,11.80
2018-09-23T10:34:41.925Z,11.80
2018-09-23T10:37:09.874Z,11.80
2018-09-23T10:39:37.799Z,11.80
2018-09-23T10:42:05.727Z,11.80
2018-09-23T10:44:33.685Z,11.80
2018-09-23T10:47:02.169Z,11.80
2018-09-23T10:49:30.168Z,11.70
2018-09-23T10:51:58.070Z,11.60
2018-09-23T10:54:27.058Z,11.50
2018-09-23T11:04:19.253Z,11.30
2018-09-23T11:06:47.423Z,11.30
2018-09-23T11:19:08.638Z,11.20
2018-09-23T11:21:37.350Z,11.20
2018-09-23T11:26:35.289Z,11.20
2018-09-23T11:29:04.324Z,11.20
2018-09-23T11:38:58.091Z,11.20
2018-09-23T11:46:21.889Z,11.30
2018-09-23T11:48:49.816Z,11.30
2018-09-23T11:51:17.812Z,11.20
2018-09-23T11:53:45.766Z,11.20
2018-09-23T11:58:41.315Z,11.20
2018-09-23T12:03:36.965Z,11.10
2018-09-23T12:11:00.186Z,11.30
2018-09-23T12:13:28.047Z,11.30
2018-09-23T12:15:55.970Z,11.30
2018-09-23T12:20:51.507Z,11.30
2018-09-23T12:25:47.226Z,11.30
2018-09-23T12:28:15.474Z,11.30
2018-09-23T12:30:43.495Z,11.30
2018-09-23T12:33:11.493Z,11.20
2018-09-23T12:38:07.017Z,11.10
2018-09-23T12:40:34.979Z,11.10
2018-09-23T12:43:02.890Z,11.10
2018-09-23T12:45:30.795Z,11.00
2018-09-23T12:47:58.765Z,10.90
2018-09-23T12:50:26.798Z,10.90
2018-09-23T12:52:54.692Z,10.90
2018-09-23T12:57:50.175Z,10.80
2018-09-23T13:00:18.130Z,10.80
2018-09-23T13:02:46.067Z,10.70
2018-09-23T13:05:14.024Z,10.70
2018-09-23T13:07:41.980Z,10.70
2018-09-23T13:10:09.953Z,10.70
2018-09-23T13:20:00.561Z,10.60
2018-09-23T13:22:28.544Z,10.60
2018-09-23T13:27:24.050Z,10.60
2018-09-23T13:29:51.981Z,10.50
2018-09-23T13:32:19.919Z,10.50
2018-09-23T13:37:15.456Z,10.40
2018-09-23T13:39:43.498Z,10.40
2018-09-23T13:42:11.476Z,10.30
2018-09-23T13:44:39.393Z,10.30
2018-09-23T13:49:34.858Z,10.20
2018-09-23T13:52:02.806Z,10.20
2018-09-23T13:59:25.962Z,10.20
2018-09-23T14:01:53.958Z,10.20
2018-09-23T14:04:21.914Z,10.20
2018-09-23T14:06:49.833Z,10.20
2018-09-23T14:11:45.443Z,10.30
2018-09-23T14:16:40.996Z,10.30
2018-09-23T14:19:08.929Z,10.30
2018-09-23T14:21:36.869Z,10.30
2018-09-23T14:24:04.809Z,10.30
2018-09-23T14:31:28.062Z,10.30
2018-09-23T14:33:56.022Z,10.30
2018-09-23T14:38:51.702Z,10.40
2018-09-23T14:41:19.628Z,10.40
2018-09-23T14:46:15.459Z,10.40
2018-09-23T14:51:11.065Z,10.30
2018-09-23T14:53:39.019Z,10.30
2018-09-23T14:56:07.034Z,10.20
2018-09-23T14:58:35.321Z,10.20
2018-09-23T15:01:03.247Z,10.20
2018-09-23T15:05:58.913Z,10.20
2018-09-23T15:08:26.831Z,10.10
2018-09-23T15:10:54.865Z,10.20
2018-09-23T15:13:22.795Z,10.20
2018-09-23T15:15:50.812Z,10.20
2018-09-23T15:18:19.235Z,10.20
2018-09-23T15:23:15.748Z,10.10
2018-09-23T15:28:11.290Z,10.10
2018-09-23T15:33:06.849Z,9.90
2018-09-23T15:42:57.378Z,9.80
2018-09-23T15:47:52.973Z,9.70
2018-09-23T15:52:48.566Z,9.80
2018-09-23T16:00:12.421Z,9.70
2018-09-23T16:07:35.568Z,9.70
2018-09-23T16:10:03.536Z,9.70
2018-09-23T16:12:31.972Z,9.80
2018-09-23T16:19:55.143Z,9.70
2018-09-23T16:24:50.647Z,9.80
2018-09-23T16:27:18.594Z,9.70
2018-09-23T16:29:46.541Z,9.80
2018-09-23T16:32:14.492Z,9.80
2018-09-23T16:34:42.422Z,9.80
2018-09-23T16:42:05.415Z,9.80
2018-09-23T16:47:00.917Z,9.70
2018-09-23T16:51:56.610Z,9.70
2018-09-23T16:54:24.650Z,9.70
2018-09-23T16:56:52.589Z,9.70
2018-09-23T17:06:43.584Z,9.70
2018-09-23T17:09:11.529Z,9.70
2018-09-23T17:11:39.448Z,9.70
2018-09-23T17:16:35.429Z,9.70
2018-09-23T17:19:03.401Z,9.50
2018-09-23T17:23:58.907Z,9.60
2018-09-23T17:28:54.391Z,9.50
2018-09-23T17:31:22.309Z,9.40
2018-09-23T17:33:50.282Z,9.40
2018-09-23T17:36:18.306Z,9.40
2018-09-23T17:41:13.797Z,9.30
2018-09-23T17:53:32.242Z,9.30
2018-09-23T18:00:55.424Z,9.30
2018-09-23T18:08:18.858Z,9.30
2018-09-23T18:10:46.795Z,9.30
2018-09-23T18:13:14.906Z,9.40
2018-09-23T18:15:42.868Z,9.40
2018-09-23T18:18:11.450Z,9.40
2018-09-23T18:20:39.482Z,9.40
2018-09-23T18:23:07.406Z,9.40
2018-09-23T18:25:35.359Z,9.30
2018-09-23T18:28:03.501Z,9.20
2018-09-23T18:30:31.576Z,9.20
2018-09-23T18:32:59.646Z,9.20
2018-09-23T18:35:27.673Z,9.10
2018-09-23T18:40:23.309Z,9.10
2018-09-23T18:42:51.367Z,9.10
2018-09-23T18:45:19.284Z,9.10
2018-09-23T18:47:47.680Z,9.10
2018-09-23T18:50:16.043Z,9.10
2018-09-23T18:52:43.978Z,9.00
2018-09-23T18:55:17.332Z,9.00
2018-09-23T18:57:45.308Z,9.00
2018-09-23T19:00:13.429Z,9.00
2018-09-23T19:02:41.365Z,9.00
2018-09-23T19:05:09.317Z,9.00
2018-09-23T19:10:04.792Z,8.90
2018-09-23T19:12:32.730Z,8.90
2018-09-23T19:15:00.978Z,8.90
2018-09-23T19:17:28.983Z,8.90
2018-09-23T19:25:03.806Z,9.00
2018-09-23T19:29:59.942Z,9.00
2018-09-23T19:32:27.965Z,9.00
2018-09-23T19:34:55.925Z,9.00
2018-09-23T19:37:23.881Z,8.90
2018-09-23T19:39:51.800Z,9.00
2018-09-23T19:44:47.498Z,9.00
2018-09-23T19:47:15.490Z,9.00
2018-09-23T19:49:43.500Z,9.00
2018-09-23T19:52:11.581Z,9.00
2018-09-23T19:54:39.551Z,9.00
2018-09-23T19:57:07.783Z,9.00
2018-09-23T19:59:35.697Z,9.00
2018-09-23T20:04:31.294Z,9.00
2018-09-23T20:09:26.899Z,9.10
2018-09-23T20:14:22.393Z,9.10
2018-09-23T20:16:50.344Z,9.10
2018-09-23T20:19:18.344Z,9.10
2018-09-23T20:21:46.356Z,9.00
2018-09-23T20:24:14.403Z,9.00
2018-09-23T20:26:42.382Z,9.00
2018-09-23T20:34:05.557Z,9.10
2018-09-23T20:39:01.094Z,9.10
2018-09-23T20:41:28.996Z,9.10
2018-09-23T20:46:24.784Z,9.10
2018-09-23T20:48:52.752Z,9.20
2018-09-23T20:51:20.720Z,9.20
2018-09-23T20:53:48.729Z,9.10
2018-09-23T20:56:16.649Z,9.10
2018-09-23T20:58:44.563Z,9.10
2018-09-23T21:01:12.516Z,9.10
2018-09-23T21:03:40.460Z,9.10
2018-09-23T21:08:35.951Z,9.00
2018-09-23T21:11:03.940Z,9.00
2018-09-23T21:13:31.912Z,9.00
2018-09-23T21:15:59.881Z,9.00
2018-09-23T21:18:27.843Z,9.00
2018-09-23T21:20:55.768Z,9.00
2018-09-23T21:23:23.703Z,9.00
2018-09-23T21:30:46.729Z,9.10
2018-09-23T21:33:14.670Z,9.00
2018-09-23T21:35:42.607Z,9.00
2018-09-23T21:38:10.904Z,8.90
2018-09-23T21:43:06.358Z,8.90
2018-09-23T21:45:34.324Z,8.80
2018-09-23T21:52:58.775Z,8.70
2018-09-23T21:55:26.682Z,8.70
2018-09-23T22:00:22.299Z,8.70
2018-09-23T22:02:50.239Z,8.60
2018-09-23T22:07:45.902Z,8.60
2018-09-23T22:10:13.808Z,8.60
2018-09-23T22:12:41.722Z,8.50
2018-09-23T22:15:16.848Z,8.50
2018-09-23T22:17:44.814Z,8.50
2018-09-23T22:20:12.745Z,8.50
2018-09-23T22:25:08.221Z,8.50
2018-09-23T22:27:36.129Z,8.40
2018-09-23T22:30:04.118Z,8.40
2018-09-23T22:32:32.155Z,8.40
2018-09-23T22:35:00.066Z,8.30
2018-09-23T22:37:27.986Z,8.30
2018-09-23T22:39:55.950Z,8.30
2018-09-23T22:42:23.854Z,8.30
2018-09-23T22:44:51.804Z,8.30
2018-09-23T22:47:19.737Z,8.30
2018-09-23T22:49:47.689Z,8.20
2018-09-23T22:52:15.590Z,8.20
2018-09-23T22:54:43.518Z,8.20
2018-09-23T22:57:11.460Z,8.20
2018-09-23T22:59:39.422Z,8.20
2018-09-23T23:09:29.991Z,8.20
2018-09-23T23:14:25.663Z,8.10
2018-09-23T23:16:53.594Z,8.10
2018-09-23T23:19:21.535Z,8.10
2018-09-23T23:21:49.447Z,8.10
2018-09-23T23:24:17.380Z,8.20
2018-09-23T23:29:12.891Z,8.10
2018-09-23T23:31:40.808Z,8.10
2018-09-23T23:34:08.793Z,8.10
2018-09-23T23:36:36.699Z,8.10
2018-09-23T23:39:06.351Z,8.10
2018-09-23T23:41:34.300Z,8.10
2018-09-23T23:46:29.916Z,8.00
2018-09-23T23:53:54.033Z,8.00
